Time;durP1;ratioP1;P1;durP2;ratioP2;P2;SDS_P1;SDS_P2;PMS_P1;PMS_P2;Temp;Humidity;BMP_temperature;BMP_pressure;BME280_temperature;BME280_humidity;BME280_pressure;Samples;Min_cycle;Max_cycle;Signal;HPM_P1;HPM_P2
2022/01/31 00:00:20;;;;;;;20.50;3.70;;;;;;;1.08;78.07;97988.05;106456;1274;107749;-69
2022/01/31 00:03:06;;;;;;;21.00;4.40;;;;;;;1.10;78.35;97985.12;105970;1274;97964;-69
2022/01/31 00:05:34;;;;;;;21.60;4.70;;;;;;;1.12;78.27;97980.67;105950;1275;95263;-70
2022/01/31 00:08:03;;;;;;;22.10;5.10;;;;;;;1.16;78.27;97981.34;106006;1274;112007;-68
2022/01/31 00:10:32;;;;;;;23.60;6.10;;;;;;;1.18;78.13;97981.09;105951;1277;95199;-68
2022/01/31 00:13:07;;;;;;;20.70;3.90;;;;;;;1.22;78.03;97982.42;106048;1275;108545;-68
2022/01/31 00:15:40;;;;;;;23.40;5.30;;;;;;;1.27;77.32;97975.34;106059;1275;97953;-68
2022/01/31 00:18:09;;;;;;;15.90;3.50;;;;;;;1.32;77.43;97981.52;106115;1275;97885;-68
2022/01/31 00:20:37;;;;;;;21.50;3.90;;;;;;;1.38;77.34;97979.34;105993;1275;111988;-67
2022/01/31 00:23:05;;;;;;;23.50;4.10;;;;;;;1.41;77.75;97985.98;105980;1274;97938;-68
2022/01/31 00:25:33;;;;;;;19.20;4.40;;;;;;;1.44;77.57;97984.77;106015;1274;108567;-69
2022/01/31 00:28:02;;;;;;;20.90;4.90;;;;;;;1.47;77.37;97978.48;106180;1274;95293;-70
2022/01/31 00:30:30;;;;;;;24.50;5.50;;;;;;;1.51;77.26;97985.44;106122;1274;95267;-68
2022/01/31 00:32:58;;;;;;;20.10;4.00;;;;;;;1.55;77.10;97984.58;106158;1274;111262;-68
2022/01/31 00:35:26;;;;;;;19.80;3.40;;;;;;;1.56;76.95;97988.19;106102;1274;95193;-68
2022/01/31 00:37:55;;;;;;;20.10;3.70;;;;;;;1.57;76.75;97992.14;106108;1274;108383;-69
2022/01/31 00:40:23;;;;;;;22.10;3.60;;;;;;;1.59;76.60;97983.62;106059;1274;97911;-67
2022/01/31 00:42:51;;;;;;;16.30;3.60;;;;;;;1.61;76.98;97995.39;106053;1274;95345;-67
2022/01/31 00:45:28;;;;;;;23.40;5.60;;;;;;;1.62;76.82;97997.61;106105;1277;111995;-67
2022/01/31 00:48:05;;;;;;;14.10;3.30;;;;;;;1.63;76.27;98002.96;106145;1274;96534;-68
2022/01/31 00:50:38;;;;;;;18.50;3.50;;;;;;;1.66;76.19;97999.00;106169;1274;108355;-68
2022/01/31 00:53:07;;;;;;;22.10;4.30;;;;;;;1.67;75.59;98011.85;106193;1274;95275;-69
2022/01/31 00:55:36;;;;;;;15.60;3.90;;;;;;;1.68;76.25;98012.52;106236;1274;97830;-67
2022/01/31 00:58:04;;;;;;;19.20;3.50;;;;;;;1.69;75.25;98010.02;106176;1274;112061;-71
2022/01/31 01:00:32;;;;;;;20.10;4.50;;;;;;;1.70;75.92;98011.54;106199;1274;96356;-69
2022/01/31 01:03:04;;;;;;;22.30;5.50;;;;;;;1.69;76.25;98008.81;106242;1274;108636;-70
2022/01/31 01:05:32;;;;;;;23.40;6.00;;;;;;;1.65;75.92;98024.89;106127;1275;97889;-67
2022/01/31 01:08:03;;;;;;;28.60;5.70;;;;;;;1.60;75.37;98025.00;106202;1274;97839;-68
2022/01/31 01:10:32;;;;;;;18.80;4.00;;;;;;;1.58;76.25;98026.14;106123;1274;111801;-70
2022/01/31 01:13:01;;;;;;;17.90;3.70;;;;;;;1.55;76.26;98035.55;106169;1274;97973;-71
2022/01/31 01:15:30;;;;;;;21.30;4.00;;;;;;;1.51;75.89;98034.36;106109;1274;106246;-71
2022/01/31 01:17:59;;;;;;;19.60;4.20;;;;;;;1.47;75.87;98030.70;106115;1274;95246;-71
2022/01/31 01:20:27;;;;;;;16.90;4.40;;;;;;;1.44;76.08;98035.39;106097;1274;95290;-70
2022/01/31 01:22:56;;;;;;;21.10;3.90;;;;;;;1.44;75.74;98031.61;106067;1274;111078;-70
2022/01/31 01:25:24;;;;;;;18.50;3.90;;;;;;;1.46;76.06;98040.76;106057;1274;97967;-70
2022/01/31 01:27:54;;;;;;;21.50;4.70;;;;;;;1.47;75.74;98042.93;106107;1274;108376;-69
2022/01/31 01:30:23;;;;;;;22.30;5.20;;;;;;;1.51;76.03;98044.33;106168;1274;97960;-69
2022/01/31 01:35:30;;;;;;;26.50;4.50;;;;;;;1.56;75.92;98028.73;106193;1274;111534;-68
2022/01/31 01:38:04;;;;;;;23.90;4.10;;;;;;;1.57;75.69;98042.63;106148;1277;95321;-66
2022/01/31 01:40:36;;;;;;;31.60;4.70;;;;;;;1.58;75.39;98039.25;106111;1274;106565;-68
2022/01/31 01:43:04;;;;;;;21.80;5.00;;;;;;;1.58;74.93;98033.84;106108;1274;98589;-69
2022/01/31 01:45:32;;;;;;;23.20;4.40;;;;;;;1.58;75.50;98028.58;106168;1274;96574;-69
2022/01/31 01:48:01;;;;;;;16.60;3.70;;;;;;;1.59;75.14;98036.21;106027;1274;112229;-68
2022/01/31 01:50:29;;;;;;;22.90;4.60;;;;;;;1.60;75.13;98029.88;105987;1274;97963;-68
2022/01/31 01:52:56;;;;;;;20.70;4.20;;;;;;;1.61;74.98;98034.56;105932;1274;108237;-68
2022/01/31 01:55:24;;;;;;;21.60;5.00;;;;;;;1.62;74.87;98039.41;105977;1274;97956;-68
2022/01/31 01:57:53;;;;;;;20.50;3.90;;;;;;;1.62;75.12;98033.80;106027;1274;95190;-67
2022/01/31 02:00:26;;;;;;;20.30;3.80;;;;;;;1.62;75.00;98038.50;106062;1274;112027;-68
2022/01/31 02:02:55;;;;;;;20.70;4.40;;;;;;;1.61;74.84;98039.60;105981;1274;95272;-66
2022/01/31 02:05:23;;;;;;;22.20;4.20;;;;;;;1.61;74.71;98035.63;107136;1274;107695;-69
2022/01/31 02:07:52;;;;;;;20.10;3.40;;;;;;;1.61;74.84;98035.10;106014;1274;96356;-68
2022/01/31 02:10:20;;;;;;;16.40;3.70;;;;;;;1.60;75.05;98035.98;106111;1274;97966;-69
2022/01/31 02:12:49;;;;;;;19.70;3.60;;;;;;;1.60;74.84;98036.70;106073;1274;111994;-69
2022/01/31 02:15:23;;;;;;;20.80;3.60;;;;;;;1.59;74.17;98042.20;106096;1274;97871;-70
2022/01/31 02:17:51;;;;;;;22.10;4.30;;;;;;;1.58;74.35;98040.13;106112;1274;108382;-70
2022/01/31 02:20:19;;;;;;;18.80;4.20;;;;;;;1.58;74.53;98047.31;106008;1275;97975;-68
2022/01/31 02:22:48;;;;;;;21.10;3.90;;;;;;;1.59;74.36;98044.29;106074;1274;97855;-69
2022/01/31 02:25:16;;;;;;;23.60;4.20;;;;;;;1.59;74.54;98046.54;106112;1274;111820;-67
2022/01/31 02:27:45;;;;;;;19.20;3.90;;;;;;;1.60;74.61;98056.63;106123;1274;97729;-68
2022/01/31 02:30:17;;;;;;;18.50;4.30;;;;;;;1.60;74.47;98058.02;106128;1274;108376;-69
2022/01/31 02:32:46;;;;;;;19.10;3.80;;;;;;;1.59;74.22;98066.99;106022;1274;97956;-68
2022/01/31 02:35:14;;;;;;;20.60;5.00;;;;;;;1.58;74.17;98066.66;106174;1274;97878;-70
2022/01/31 02:37:43;;;;;;;15.30;3.40;;;;;;;1.58;74.10;98063.55;106139;1274;111568;-67
2022/01/31 02:40:12;;;;;;;21.00;3.60;;;;;;;1.57;73.53;98066.76;106160;1274;97903;-69
2022/01/31 02:42:39;;;;;;;25.90;5.20;;;;;;;1.56;73.55;98070.48;106160;1274;107438;-66
2022/01/31 02:45:08;;;;;;;20.50;3.90;;;;;;;1.55;73.67;98060.05;106101;1274;97838;-68
2022/01/31 02:47:40;;;;;;;18.60;4.20;;;;;;;1.54;73.71;98068.12;106135;1274;95194;-69
2022/01/31 02:50:12;;;;;;;19.00;4.10;;;;;;;1.54;73.84;98078.44;106098;1274;111981;-70
2022/01/31 02:52:47;;;;;;;14.50;3.40;;;;;;;1.52;73.62;98077.98;106037;1274;95207;-69
2022/01/31 02:55:17;;;;;;;19.50;3.90;;;;;;;1.53;73.71;98075.88;106068;1274;107988;-70
2022/01/31 02:57:44;;;;;;;17.80;4.30;;;;;;;1.52;73.59;98070.48;106176;1274;98560;-69
2022/01/31 03:00:13;;;;;;;24.00;5.10;;;;;;;1.51;73.37;98080.33;106122;1274;96600;-67
2022/01/31 03:02:41;;;;;;;19.20;3.70;;;;;;;1.51;73.46;98068.30;106189;1274;111333;-70
2022/01/31 03:05:09;;;;;;;23.50;4.50;;;;;;;1.50;73.40;98067.45;106154;1274;97879;-69
2022/01/31 03:07:37;;;;;;;19.10;3.70;;;;;;;1.49;73.32;98062.23;106077;1274;108522;-69
2022/01/31 03:10:07;;;;;;;22.00;4.20;;;;;;;1.49;73.58;98063.27;106138;1274;97836;-69
2022/01/31 03:12:35;;;;;;;18.90;3.50;;;;;;;1.48;73.25;98058.61;106179;1274;97832;-67
2022/01/31 03:15:04;;;;;;;16.40;3.40;;;;;;;1.48;73.03;98059.52;106055;1274;112287;-67
2022/01/31 03:17:32;;;;;;;16.10;4.10;;;;;;;1.47;72.79;98058.52;106062;1274;97904;-68
2022/01/31 03:19:59;;;;;;;18.90;3.80;;;;;;;1.47;73.36;98045.23;106118;1274;108304;-70
2022/01/31 03:22:30;;;;;;;21.50;4.20;;;;;;;1.46;72.58;98040.73;106124;1274;96227;-69
2022/01/31 03:24:58;;;;;;;19.20;3.90;;;;;;;1.46;72.52;98047.19;106105;1274;95279;-71
2022/01/31 03:27:26;;;;;;;17.10;3.20;;;;;;;1.46;72.54;98049.11;106057;1274;112021;-70
2022/01/31 03:29:55;;;;;;;20.90;4.10;;;;;;;1.45;71.53;98034.35;106212;1274;98571;-71
2022/01/31 03:32:22;;;;;;;22.40;4.20;;;;;;;1.44;72.13;98036.46;104997;1275;1467157;-68
2022/01/31 03:34:50;;;;;;;22.80;4.50;;;;;;;1.44;71.80;98024.61;106047;1274;95390;-69
2022/01/31 03:37:20;;;;;;;21.90;4.50;;;;;;;1.43;72.13;98019.45;106203;1274;97948;-68
2022/01/31 03:39:48;;;;;;;19.90;3.60;;;;;;;1.41;72.29;98017.41;106193;1274;111375;-68
2022/01/31 03:42:18;;;;;;;15.10;3.20;;;;;;;1.41;72.32;98018.84;106223;1274;97931;-68
2022/01/31 03:44:49;;;;;;;17.70;3.60;;;;;;;1.40;72.01;98019.39;106171;1274;108428;-68
2022/01/31 03:47:23;;;;;;;16.10;3.50;;;;;;;1.39;72.14;98027.98;106211;1274;95304;-69
2022/01/31 03:49:52;;;;;;;25.00;3.80;;;;;;;1.39;71.84;98017.72;106222;1274;97879;-68
2022/01/31 03:52:21;;;;;;;18.90;3.60;;;;;;;1.37;72.02;98014.13;106182;1274;112302;-70
2022/01/31 03:54:49;;;;;;;27.80;4.00;;;;;;;1.37;72.52;98011.54;106221;1274;97848;-69
2022/01/31 03:57:16;;;;;;;20.10;4.30;;;;;;;1.37;72.45;98013.79;106136;1274;107720;-70
2022/01/31 03:59:45;;;;;;;15.90;3.40;;;;;;;1.38;72.15;98015.31;106136;1274;97978;-69
2022/01/31 04:02:13;;;;;;;15.60;3.20;;;;;;;1.37;71.99;98005.41;106049;1274;97855;-70
2022/01/31 04:04:42;;;;;;;22.60;4.80;;;;;;;1.36;72.60;98006.86;106103;1274;112097;-69
2022/01/31 04:07:11;;;;;;;17.50;3.30;;;;;;;1.37;72.50;98003.85;105979;1274;97963;-68
2022/01/31 04:09:39;;;;;;;17.90;3.90;;;;;;;1.37;72.43;97999.28;106104;1274;110448;-68
2022/01/31 04:12:10;;;;;;;19.40;3.80;;;;;;;1.37;72.38;97994.42;106077;1274;97899;-69
2022/01/31 04:14:38;;;;;;;15.90;3.20;;;;;;;1.36;72.30;97991.15;106156;1274;97946;-66
2022/01/31 04:17:12;;;;;;;21.40;4.00;;;;;;;1.34;72.51;97994.36;106055;1274;111402;-69
2022/01/31 04:19:40;;;;;;;21.00;4.20;;;;;;;1.34;71.69;97991.02;106112;1274;97960;-66
2022/01/31 04:22:11;;;;;;;18.20;4.00;;;;;;;1.34;71.80;97990.16;106090;1274;108397;-68
2022/01/31 04:24:41;;;;;;;17.40;3.00;;;;;;;1.34;71.76;97989.11;105968;1274;98069;-68
2022/01/31 04:27:16;;;;;;;19.10;4.50;;;;;;;1.33;71.02;97996.51;106021;1274;97787;-69
2022/01/31 04:29:47;;;;;;;18.80;4.50;;;;;;;1.32;70.70;97996.90;106013;1274;111351;-70
2022/01/31 04:32:16;;;;;;;19.00;3.70;;;;;;;1.32;71.57;97979.30;105999;1274;97899;-69
2022/01/31 04:34:44;;;;;;;22.20;3.90;;;;;;;1.31;71.46;97982.64;106002;1274;108150;-66
2022/01/31 04:37:13;;;;;;;14.20;4.10;;;;;;;1.30;71.50;97989.88;106041;1274;98059;-69
2022/01/31 04:39:41;;;;;;;14.80;3.00;;;;;;;1.29;71.33;97987.98;105992;1274;95191;-69
2022/01/31 04:42:09;;;;;;;21.40;3.40;;;;;;;1.28;71.33;97970.39;106048;1274;111440;-69
2022/01/31 04:44:37;;;;;;;16.50;3.30;;;;;;;1.28;71.22;97980.55;106007;1274;97934;-69
2022/01/31 04:47:06;;;;;;;20.50;3.60;;;;;;;1.27;71.02;97976.91;106094;1274;108083;-70
2022/01/31 04:49:35;;;;;;;18.70;3.90;;;;;;;1.26;70.40;97972.08;106125;1274;95297;-69
2022/01/31 04:52:04;;;;;;;16.40;3.80;;;;;;;1.26;71.10;97981.02;106153;1274;95279;-67
2022/01/31 04:54:32;;;;;;;16.30;3.80;;;;;;;1.25;71.00;97982.78;106218;1274;111405;-67
2022/01/31 04:57:00;;;;;;;23.30;3.50;;;;;;;1.25;71.24;97985.05;106127;1274;95431;-70
2022/01/31 04:59:29;;;;;;;21.50;4.30;;;;;;;1.26;71.35;97981.70;106215;1274;108263;-68
2022/01/31 05:01:57;;;;;;;17.40;2.90;;;;;;;1.26;71.19;97980.48;106117;1274;98013;-68
2022/01/31 05:04:26;;;;;;;16.60;3.10;;;;;;;1.25;70.90;97983.81;106166;1274;97861;-67
2022/01/31 05:06:54;;;;;;;27.00;3.80;;;;;;;1.24;70.86;97987.73;106120;1277;112093;-69
2022/01/31 05:09:23;;;;;;;22.10;3.60;;;;;;;1.23;70.31;97985.86;106145;1274;96482;-68
2022/01/31 05:11:51;;;;;;;17.30;3.40;;;;;;;1.22;70.35;97972.83;106087;1276;107355;-69
2022/01/31 05:14:20;;;;;;;19.00;3.60;;;;;;;1.21;69.91;97979.51;106138;1274;97911;-69
2022/01/31 05:16:50;;;;;;;19.10;3.40;;;;;;;1.20;70.32;97977.64;106106;1274;97899;-68
2022/01/31 05:19:19;;;;;;;16.70;3.30;;;;;;;1.19;70.05;97982.58;106160;1274;111406;-68
2022/01/31 05:21:47;;;;;;;17.30;3.70;;;;;;;1.19;70.26;97984.49;106142;1274;97860;-68
2022/01/31 05:24:15;;;;;;;18.30;4.10;;;;;;;1.18;70.14;97969.69;106062;1274;108445;-70
2022/01/31 05:26:43;;;;;;;18.00;3.60;;;;;;;1.18;70.42;97966.75;106180;1274;98288;-68
2022/01/31 05:29:11;;;;;;;16.50;3.10;;;;;;;1.15;70.53;97965.48;106196;1274;95467;-70
2022/01/31 05:31:44;;;;;;;20.60;3.70;;;;;;;1.13;70.76;97971.38;106138;1274;111387;-68
2022/01/31 05:34:12;;;;;;;22.30;3.80;;;;;;;1.10;70.38;97966.98;106137;1274;97992;-68
2022/01/31 05:36:41;;;;;;;19.10;3.90;;;;;;;1.06;70.50;97960.02;106176;1274;108098;-69
2022/01/31 05:39:10;;;;;;;16.90;3.60;;;;;;;1.02;70.60;97965.25;106175;1274;97997;-68
2022/01/31 05:41:38;;;;;;;17.80;4.10;;;;;;;0.99;70.38;97969.44;106188;1273;97726;-68
2022/01/31 05:44:05;;;;;;;17.80;3.50;;;;;;;0.96;70.56;97968.40;106127;1274;111051;-69
2022/01/31 05:46:34;;;;;;;16.20;3.30;;;;;;;0.92;69.78;97967.19;106113;1275;98006;-66
2022/01/31 05:49:03;;;;;;;18.20;3.40;;;;;;;0.87;70.22;97962.20;106058;1274;108554;-67
2022/01/31 05:51:31;;;;;;;17.00;3.60;;;;;;;0.84;70.05;97964.59;106097;1274;97929;-69
2022/01/31 05:54:00;;;;;;;18.60;4.60;;;;;;;0.80;70.23;97958.52;106166;1274;98008;-68
2022/01/31 05:56:28;;;;;;;17.30;3.80;;;;;;;0.77;70.12;97960.98;106149;1274;112119;-68
2022/01/31 05:58:57;;;;;;;16.60;3.20;;;;;;;0.74;69.88;97964.40;106096;1274;95255;-67
2022/01/31 06:01:24;;;;;;;20.70;4.80;;;;;;;0.72;70.01;97969.23;106099;1274;108371;-68
2022/01/31 06:03:53;;;;;;;22.80;4.40;;;;;;;0.69;69.91;97964.83;106136;1274;97976;-68
2022/01/31 06:06:21;;;;;;;23.00;4.60;;;;;;;0.68;69.70;97963.49;106176;1274;97953;-69
2022/01/31 06:08:53;;;;;;;19.30;4.40;;;;;;;0.67;69.93;97963.92;106108;1274;111841;-69
2022/01/31 06:11:21;;;;;;;23.10;5.10;;;;;;;0.65;70.11;97973.59;106053;1274;97914;-68
2022/01/31 06:13:48;;;;;;;22.10;4.70;;;;;;;0.64;70.39;97974.14;106154;1274;108280;-69
2022/01/31 06:16:18;;;;;;;23.10;4.40;;;;;;;0.64;70.15;97975.58;106146;1274;97969;-69
2022/01/31 06:18:47;;;;;;;16.90;3.70;;;;;;;0.63;70.06;97981.53;106129;1274;97966;-68
2022/01/31 06:21:15;;;;;;;27.00;5.10;;;;;;;0.62;69.70;97978.08;106126;1274;112196;-69
2022/01/31 06:23:43;;;;;;;21.90;4.90;;;;;;;0.61;70.00;97973.48;106125;1274;97898;-69
2022/01/31 06:26:12;;;;;;;23.50;4.60;;;;;;;0.59;69.73;97970.74;105996;1276;108276;-69
2022/01/31 06:28:40;;;;;;;24.90;4.80;;;;;;;0.56;69.89;97968.28;106084;1274;97956;-68
2022/01/31 06:31:10;;;;;;;23.20;5.50;;;;;;;0.55;70.11;97965.68;106084;1274;96821;-69
2022/01/31 06:33:39;;;;;;;27.30;5.20;;;;;;;0.55;69.79;97962.90;105939;1275;112158;-69
2022/01/31 06:36:07;;;;;;;25.10;4.90;;;;;;;0.54;69.66;97961.56;106067;1274;97894;-68
2022/01/31 06:38:36;;;;;;;24.70;5.20;;;;;;;0.54;69.67;97956.36;106076;1274;108666;-70
2022/01/31 06:41:09;;;;;;;27.20;5.20;;;;;;;0.53;69.50;97959.88;106086;1274;97848;-68
2022/01/31 06:43:37;;;;;;;25.70;5.20;;;;;;;0.52;69.88;97954.67;106070;1274;97825;-71
2022/01/31 06:46:07;;;;;;;20.00;4.10;;;;;;;0.52;69.74;97951.88;106005;1274;111986;-70
2022/01/31 06:48:36;;;;;;;19.60;4.40;;;;;;;0.53;69.58;97949.26;105954;1274;97972;-70
2022/01/31 06:51:04;;;;;;;17.60;4.50;;;;;;;0.53;69.52;97946.27;105971;1274;105966;-69
2022/01/31 06:53:34;;;;;;;21.90;4.60;;;;;;;0.54;69.83;97945.70;106111;1274;97854;-69
2022/01/31 06:56:04;;;;;;;24.00;5.30;;;;;;;0.55;69.82;97944.23;106091;1274;95311;-69
2022/01/31 06:58:33;;;;;;;24.60;5.60;;;;;;;0.57;69.83;97946.09;105918;1274;112023;-68
2022/01/31 07:01:01;;;;;;;24.60;5.00;;;;;;;0.57;69.91;97947.28;106026;1274;97693;-68
2022/01/31 07:03:29;;;;;;;19.60;4.90;;;;;;;0.58;69.83;97947.21;106009;1274;108378;-69
2022/01/31 07:06:00;;;;;;;24.10;4.80;;;;;;;0.60;69.78;97949.91;105644;1274;97983;-69
2022/01/31 07:08:28;;;;;;;21.90;5.40;;;;;;;0.61;69.25;97951.10;105869;1274;97841;-69
2022/01/31 07:10:59;;;;;;;19.80;4.80;;;;;;;0.62;69.57;97950.00;105899;1274;111942;-69
2022/01/31 07:16:05;;;;;;;26.00;5.60;;;;;;;0.69;69.55;97945.48;105911;1274;107920;-68
2022/01/31 07:18:35;;;;;;;26.40;5.40;;;;;;;0.71;69.47;97944.33;105971;1274;97896;-69
2022/01/31 07:21:04;;;;;;;31.10;5.90;;;;;;;0.74;69.80;97943.46;105847;1274;97904;-68
2022/01/31 07:23:52;;;;;;;15.60;3.90;;;;;;;0.78;69.80;97945.02;105931;1274;111757;-70
2022/01/31 07:26:20;;;;;;;31.30;7.90;;;;;;;0.82;69.36;97947.98;105860;1274;98616;-68
2022/01/31 07:28:48;;;;;;;28.10;6.70;;;;;;;0.84;69.60;97951.54;105913;1274;108316;-69
2022/01/31 07:31:17;;;;;;;27.70;6.60;;;;;;;0.85;69.53;97950.75;106073;1274;96691;-68
2022/01/31 07:33:45;;;;;;;23.30;5.70;;;;;;;0.88;69.75;97954.29;105884;1274;97977;-69
2022/01/31 07:36:12;;;;;;;26.70;6.50;;;;;;;0.92;69.62;97957.08;105867;1274;112265;-68
2022/01/31 07:38:41;;;;;;;25.20;5.70;;;;;;;0.96;69.67;97958.77;105761;1274;97986;-71
2022/01/31 07:41:14;;;;;;;25.50;6.00;;;;;;;0.99;69.39;97964.89;105754;1274;106925;-68
2022/01/31 07:43:44;;;;;;;20.70;5.80;;;;;;;1.02;69.32;97967.72;105977;1274;97897;-70
2022/01/31 07:46:15;;;;;;;26.10;6.50;;;;;;;1.04;69.58;97966.94;105969;1274;95207;-69
2022/01/31 07:48:44;;;;;;;25.90;5.40;;;;;;;1.07;69.54;97965.52;105965;1274;112013;-69
2022/01/31 07:51:12;;;;;;;26.70;8.40;;;;;;;1.11;69.13;97969.20;106041;1274;97936;-69
2022/01/31 07:53:40;;;;;;;23.60;5.60;;;;;;;1.13;69.50;97967.36;105928;1274;107170;-68
2022/01/31 07:56:09;;;;;;;25.40;5.50;;;;;;;1.14;69.56;97961.86;106035;1274;99255;-70
2022/01/31 07:58:38;;;;;;;26.40;5.90;;;;;;;1.16;69.42;97954.45;106035;1274;98542;-69
2022/01/31 08:01:10;;;;;;;26.00;5.70;;;;;;;1.20;69.46;97956.48;105979;1274;111756;-70
2022/01/31 08:03:39;;;;;;;24.70;6.50;;;;;;;1.22;69.22;97949.80;106011;1274;97873;-68
2022/01/31 08:06:11;;;;;;;26.70;5.70;;;;;;;1.25;69.34;97949.44;105905;1274;107185;-67
2022/01/31 08:08:41;;;;;;;25.90;5.50;;;;;;;1.27;68.65;97944.63;105874;1274;96569;-68
2022/01/31 08:11:14;;;;;;;27.90;6.60;;;;;;;1.29;69.43;97937.52;105965;1274;97903;-67
2022/01/31 08:13:45;;;;;;;27.60;6.40;;;;;;;1.35;69.38;97936.87;105958;1274;112095;-65
2022/01/31 08:16:15;;;;;;;26.00;6.10;;;;;;;1.40;68.89;97933.48;106001;1274;97945;-68
2022/01/31 08:18:45;;;;;;;31.50;6.90;;;;;;;1.44;68.91;97942.66;106027;1274;108426;-65
2022/01/31 08:21:14;;;;;;;29.80;6.10;;;;;;;1.44;68.82;97944.55;105970;1274;97966;-67
2022/01/31 08:23:44;;;;;;;27.00;6.30;;;;;;;1.45;68.94;97940.50;106001;1274;96393;-69
2022/01/31 08:26:17;;;;;;;29.40;6.40;;;;;;;1.45;68.64;97944.20;105966;1274;112092;-69
2022/01/31 08:29:05;;;;;;;26.30;6.20;;;;;;;1.47;69.06;97942.16;106034;1272;99350;-68
2022/01/31 08:31:53;;;;;;;30.00;6.90;;;;;;;1.47;68.78;97946.54;105992;1274;108327;-67
2022/01/31 08:36:52;;;;;;;28.60;6.50;;;;;;;1.42;69.04;97943.14;106003;1274;98592;-69
2022/01/31 08:39:22;;;;;;;30.30;6.80;;;;;;;1.46;68.59;97940.81;105906;1274;112054;-69
2022/01/31 08:41:52;;;;;;;20.60;4.90;;;;;;;1.46;68.94;97932.08;105921;1274;97895;-67
2022/01/31 08:44:23;;;;;;;25.60;5.70;;;;;;;1.45;67.76;97934.21;105951;1274;109040;-68
2022/01/31 08:46:51;;;;;;;23.20;5.70;;;;;;;1.44;68.43;97938.62;105775;1274;96365;-68
2022/01/31 08:49:20;;;;;;;26.20;7.00;;;;;;;1.45;68.36;97930.02;105958;1274;95303;-70
2022/01/31 08:51:48;;;;;;;23.10;5.80;;;;;;;1.51;68.76;97930.09;105929;1274;111944;-70
2022/01/31 08:54:20;;;;;;;28.80;6.20;;;;;;;1.59;68.55;97929.48;105940;1274;97890;-69
2022/01/31 08:56:49;;;;;;;28.30;6.80;;;;;;;1.62;68.29;97925.27;106029;1274;107884;-69
2022/01/31 08:59:24;;;;;;;28.50;5.70;;;;;;;1.64;68.74;97922.02;105907;1274;97889;-68
2022/01/31 09:01:55;;;;;;;22.30;4.90;;;;;;;1.65;68.99;97920.58;106018;1274;97976;-69
2022/01/31 09:04:35;;;;;;;24.70;5.10;;;;;;;1.64;68.37;97920.45;106017;1274;111365;-68
2022/01/31 09:07:03;;;;;;;26.60;5.80;;;;;;;1.63;68.71;97916.29;106064;1274;97991;-69
2022/01/31 09:09:32;;;;;;;26.50;6.30;;;;;;;1.63;68.63;97916.83;106022;1273;108451;-69
2022/01/31 09:12:07;;;;;;;34.10;6.50;;;;;;;1.64;68.20;97922.88;105825;1276;97081;-73
2022/01/31 09:14:38;;;;;;;24.60;5.90;;;;;;;1.66;68.95;97916.00;105829;1274;97997;-70
2022/01/31 09:17:18;;;;;;;28.20;5.60;;;;;;;1.71;68.73;97916.06;106021;1274;111402;-70
2022/01/31 09:19:46;;;;;;;30.30;6.80;;;;;;;1.82;67.01;97920.33;105939;1274;96603;-71
2022/01/31 09:22:14;;;;;;;22.40;4.80;;;;;;;1.90;67.66;97914.11;105802;1274;107775;-68
2022/01/31 09:24:43;;;;;;;28.00;7.00;;;;;;;2.01;68.32;97917.58;106042;1274;97957;-69
2022/01/31 09:27:14;;;;;;;30.10;7.00;;;;;;;2.16;68.51;97914.60;106004;1274;96282;-70
2022/01/31 09:29:42;;;;;;;24.40;6.90;;;;;;;2.39;68.93;97908.77;105884;1274;111998;-69
2022/01/31 09:32:10;;;;;;;35.10;7.10;;;;;;;2.68;68.94;97906.73;105937;1274;97866;-69
2022/01/31 09:34:40;;;;;;;25.80;6.00;;;;;;;2.94;68.77;97902.08;105948;1274;109212;-70
2022/01/31 09:37:08;;;;;;;28.50;6.40;;;;;;;3.07;68.55;97903.71;105982;1274;98579;-69
2022/01/31 09:39:37;;;;;;;30.30;6.10;;;;;;;3.14;68.55;97903.50;105827;1274;98094;-69
2022/01/31 09:42:11;;;;;;;28.40;6.10;;;;;;;3.15;68.56;97903.59;105862;1274;111446;-69
2022/01/31 09:50:22;;;;;;;24.60;5.00;;;;;;;3.35;67.18;97892.02;105990;1274;96343;-66
2022/01/31 09:52:52;;;;;;;24.20;5.50;;;;;;;3.38;68.38;97887.11;105961;1274;97881;-68
2022/01/31 09:55:21;;;;;;;21.30;5.80;;;;;;;3.43;67.69;97875.80;105902;1274;112052;-67
2022/01/31 09:57:49;;;;;;;24.70;5.40;;;;;;;3.48;66.73;97874.95;105993;1274;98050;-69
2022/01/31 10:00:34;;;;;;;29.10;5.80;;;;;;;3.52;67.73;97871.15;105859;1274;108891;-67
2022/01/31 10:03:12;;;;;;;25.80;5.70;;;;;;;3.62;68.07;97870.75;105912;1274;98615;-70
2022/01/31 10:05:40;;;;;;;27.00;5.60;;;;;;;3.68;67.79;97857.24;105921;1273;97518;-68
2022/01/31 10:08:14;;;;;;;33.10;6.90;;;;;;;3.65;68.05;97857.06;106020;1274;111452;-70
2022/01/31 10:10:48;;;;;;;30.20;6.40;;;;;;;3.65;68.13;97850.89;106030;1273;97855;-70
2022/01/31 10:19:03;;;;;;;25.50;5.90;;;;;;;3.67;67.23;97850.25;105887;1274;97848;-70
2022/01/31 10:21:52;;;;;;;24.60;5.30;;;;;;;3.61;67.74;97847.66;105828;1274;111395;-68
2022/01/31 10:24:22;;;;;;;37.50;8.10;;;;;;;3.54;66.57;97848.96;105949;1274;96355;-69
2022/01/31 10:26:54;;;;;;;26.70;6.20;;;;;;;3.43;66.95;97842.11;105945;1274;107755;-70
2022/01/31 10:29:24;;;;;;;25.40;6.10;;;;;;;3.36;67.01;97841.34;105973;1274;97873;-68
2022/01/31 10:32:03;;;;;;;24.40;5.90;;;;;;;3.26;67.11;97840.70;106098;1274;95847;-69
2022/01/31 10:34:45;;;;;;;17.90;5.20;;;;;;;3.20;67.13;97839.89;106090;1274;111316;-69
2022/01/31 10:37:19;;;;;;;28.50;5.60;;;;;;;3.07;65.70;97835.95;105980;1274;97850;-70
2022/01/31 10:56:57;;;;;;;22.90;6.30;;;;;;;3.06;67.45;97802.02;105850;1274;97876;-69
2022/01/31 10:59:40;;;;;;;26.60;5.50;;;;;;;3.12;66.48;97800.26;105809;1274;96492;-70
2022/01/31 11:02:22;;;;;;;32.00;6.30;;;;;;;3.10;64.97;97796.00;106007;1274;111199;-69
2022/01/31 11:04:55;;;;;;;27.70;6.40;;;;;;;3.07;66.06;97799.16;105960;1274;97847;-71
2022/01/31 11:07:29;;;;;;;21.80;5.90;;;;;;;3.07;66.95;97796.17;105949;1274;107722;-69
2022/01/31 11:09:57;;;;;;;28.60;6.20;;;;;;;3.14;67.16;97796.81;105720;1275;96466;-70
2022/01/31 11:12:26;;;;;;;35.50;6.60;;;;;;;3.18;66.94;97786.38;106032;1274;97905;-68
2022/01/31 11:14:56;;;;;;;23.10;5.90;;;;;;;3.21;66.94;97781.48;106036;1274;111314;-71
2022/01/31 11:17:26;;;;;;;22.70;4.90;;;;;;;3.22;65.84;97780.21;105956;1274;97953;-71
2022/01/31 11:19:57;;;;;;;24.50;6.40;;;;;;;3.15;64.33;97773.79;105964;1274;107536;-70
2022/01/31 11:22:37;;;;;;;25.00;5.40;;;;;;;3.11;66.37;97766.33;105905;1274;99350;-68
2022/01/31 11:25:19;;;;;;;30.70;6.80;;;;;;;3.11;66.34;97759.65;105986;1274;96909;-68
2022/01/31 11:27:54;;;;;;;21.20;5.30;;;;;;;3.13;66.62;97753.91;105957;1274;112104;-67
2022/01/31 11:30:24;;;;;;;25.00;5.80;;;;;;;3.23;66.81;97746.83;105925;1274;95369;-68
2022/01/31 11:32:56;;;;;;;25.00;6.00;;;;;;;3.34;66.82;97746.67;105972;1274;108270;-67
2022/01/31 11:35:27;;;;;;;26.10;6.30;;;;;;;3.39;66.62;97744.77;105982;1274;97864;-67
2022/01/31 11:37:56;;;;;;;26.50;6.20;;;;;;;3.37;66.80;97744.04;105974;1274;97914;-70
2022/01/31 11:40:26;;;;;;;22.30;5.50;;;;;;;3.33;66.20;97743.22;105969;1274;112137;-69
2022/01/31 11:42:58;;;;;;;26.90;6.90;;;;;;;3.22;65.66;97737.42;105941;1274;97896;-68
2022/01/31 11:45:34;;;;;;;32.40;6.10;;;;;;;3.11;65.82;97736.17;105791;1274;107450;-68
2022/01/31 11:48:13;;;;;;;24.50;7.10;;;;;;;3.09;66.46;97730.72;106037;1274;97879;-68
2022/01/31 11:50:48;;;;;;;26.60;7.60;;;;;;;3.07;66.19;97724.88;105869;1274;97781;-68
2022/01/31 11:53:30;;;;;;;28.90;7.50;;;;;;;3.08;66.41;97723.09;105995;1274;111912;-67
2022/01/31 11:56:06;;;;;;;27.50;7.30;;;;;;;3.10;66.57;97718.36;105956;1274;97945;-69
2022/01/31 11:58:43;;;;;;;27.70;6.90;;;;;;;3.12;66.43;97712.86;105891;1274;107714;-68
2022/01/31 12:01:12;;;;;;;28.70;6.70;;;;;;;3.13;65.93;97708.75;105892;1272;96517;-67
2022/01/31 12:03:54;;;;;;;27.90;6.40;;;;;;;3.10;66.21;97709.44;106107;1274;97948;-68
2022/01/31 12:06:39;;;;;;;27.90;6.40;;;;;;;3.11;66.02;97710.94;105955;1274;111877;-68
2022/01/31 12:09:21;;;;;;;32.90;6.70;;;;;;;3.08;65.65;97708.71;106010;1274;97939;-69
2022/01/31 12:11:59;;;;;;;27.40;6.00;;;;;;;3.02;66.07;97709.98;105941;1274;108606;-69